createdAt,value
2018-12-13T00:00:15.961Z,4.71
2018-12-13T00:01:15.958Z,4.72
2018-12-13T00:02:16.067Z,4.74
2018-12-13T00:03:15.987Z,4.69
2018-12-13T00:04:15.974Z,4.67
2018-12-13T00:05:15.974Z,4.79
2018-12-13T00:06:15.981Z,4.69
2018-12-13T00:07:15.970Z,4.69
2018-12-13T00:08:15.987Z,4.74
2018-12-13T00:10:15.980Z,4.71
2018-12-13T00:11:15.985Z,4.72
2018-12-13T00:12:16.024Z,4.72
2018-12-13T00:13:15.990Z,4.65
2018-12-13T00:14:16.048Z,4.69
2018-12-13T00:15:16.121Z,4.69
2018-12-13T00:16:15.987Z,4.71
2018-12-13T00:17:15.996Z,4.74
2018-12-13T00:19:16.003Z,4.74
2018-12-13T00:21:16.007Z,4.84
2018-12-13T00:22:16.014Z,4.80
2018-12-13T00:23:16.000Z,4.87
2018-12-13T00:24:16.010Z,4.84
2018-12-13T00:25:16.007Z,4.91
2018-12-13T00:26:16.027Z,4.83
2018-12-13T00:27:16.018Z,4.80
2018-12-13T00:28:16.022Z,4.77
2018-12-13T00:29:16.024Z,4.80
2018-12-13T00:30:16.024Z,4.80
2018-12-13T00:31:16.021Z,4.77
2018-12-13T00:32:16.034Z,4.84
2018-12-13T00:33:16.088Z,4.83
2018-12-13T00:34:16.026Z,4.77
2018-12-13T00:35:16.039Z,4.68
2018-12-13T00:36:16.033Z,4.71
2018-12-13T00:37:16.035Z,4.77
2018-12-13T00:38:16.080Z,4.71
2018-12-13T00:39:16.034Z,4.71
2018-12-13T00:40:16.033Z,4.71
2018-12-13T00:41:16.041Z,4.68
2018-12-13T00:42:16.049Z,4.80
2018-12-13T00:43:16.107Z,4.86
2018-12-13T00:44:16.065Z,4.71
2018-12-13T00:45:16.059Z,4.74
2018-12-13T00:46:16.055Z,4.83
2018-12-13T00:47:16.065Z,4.87
2018-12-13T00:48:16.065Z,4.83
2018-12-13T00:49:16.056Z,4.84
2018-12-13T00:51:16.065Z,4.87
2018-12-13T00:52:16.068Z,4.87
2018-12-13T00:53:16.074Z,4.93
2018-12-13T00:54:16.094Z,4.87
2018-12-13T00:55:16.075Z,4.80
2018-12-13T00:56:16.070Z,4.90
2018-12-13T00:57:16.079Z,4.86
2018-12-13T00:58:16.079Z,4.84
2018-12-13T00:59:16.085Z,4.77
2018-12-13T01:00:16.092Z,4.80
2018-12-13T01:01:16.083Z,4.87
2018-12-13T01:02:16.080Z,4.87
2018-12-13T01:03:16.088Z,4.87
2018-12-13T01:04:16.085Z,4.87
2018-12-13T01:05:16.100Z,4.83
2018-12-13T01:06:16.210Z,4.86
2018-12-13T01:07:16.095Z,4.80
2018-12-13T01:08:16.099Z,4.87
2018-12-13T01:09:16.099Z,4.91
2018-12-13T01:10:16.099Z,4.86
2018-12-13T01:11:16.107Z,4.83
2018-12-13T01:12:16.107Z,4.68
2018-12-13T01:13:16.104Z,4.77
2018-12-13T01:14:16.114Z,4.69
2018-12-13T01:15:16.114Z,4.77
2018-12-13T01:16:16.123Z,4.88
2018-12-13T01:17:16.133Z,4.84
2018-12-13T01:18:16.122Z,4.87
2018-12-13T01:19:16.122Z,4.79
2018-12-13T01:20:16.127Z,4.79
2018-12-13T01:21:20.573Z,4.84
2018-12-13T01:22:16.121Z,4.79
2018-12-13T01:23:16.128Z,4.75
2018-12-13T01:24:16.131Z,4.69
2018-12-13T01:25:16.451Z,4.71
2018-12-13T01:26:16.142Z,4.69
2018-12-13T01:27:16.192Z,4.67
2018-12-13T01:28:16.142Z,4.65
2018-12-13T01:29:16.140Z,4.59
2018-12-13T01:30:16.155Z,4.69
2018-12-13T01:31:16.175Z,4.68
2018-12-13T01:32:16.145Z,4.61
2018-12-13T01:33:16.158Z,4.54
2018-12-13T01:34:16.150Z,4.61
2018-12-13T01:35:16.171Z,4.54
2018-12-13T01:36:16.208Z,4.57
2018-12-13T01:37:16.220Z,4.53
2018-12-13T01:38:16.163Z,4.57
2018-12-13T01:39:16.160Z,4.53
2018-12-13T01:40:16.169Z,4.61
2018-12-13T01:41:16.169Z,4.54
2018-12-13T01:42:16.166Z,4.54
2018-12-13T01:43:16.200Z,4.56
2018-12-13T01:44:16.171Z,4.50
2018-12-13T01:45:16.178Z,4.50
2018-12-13T01:46:16.174Z,4.43
2018-12-13T01:47:16.180Z,4.42
2018-12-13T01:48:16.187Z,4.47
2018-12-13T01:49:16.174Z,4.39
2018-12-13T01:50:16.182Z,4.31
2018-12-13T01:51:16.182Z,4.32
2018-12-13T01:52:16.192Z,4.35
2018-12-13T01:53:16.181Z,4.28
2018-12-13T01:54:16.189Z,4.28
2018-12-13T01:55:16.197Z,4.25
2018-12-13T01:56:16.194Z,4.29
2018-12-13T01:57:16.204Z,4.21
2018-12-13T01:58:16.206Z,4.24
2018-12-13T01:59:16.195Z,4.18
2018-12-13T02:00:16.213Z,4.10
2018-12-13T02:01:16.211Z,4.13
2018-12-13T02:02:16.202Z,4.14
2018-12-13T02:03:16.201Z,4.08
2018-12-13T02:04:16.197Z,4.08
2018-12-13T02:05:16.214Z,4.14
2018-12-13T02:06:16.211Z,4.06
2018-12-13T02:07:16.210Z,4.06
2018-12-13T02:08:16.218Z,4.02
2018-12-13T02:09:16.214Z,4.00
2018-12-13T02:10:16.217Z,3.98
2018-12-13T02:11:16.205Z,4.04
2018-12-13T02:12:16.221Z,4.04
2018-12-13T02:13:16.219Z,3.90
2018-12-13T02:14:16.221Z,3.90
2018-12-13T02:15:16.220Z,3.98
2018-12-13T02:16:16.240Z,3.99
2018-12-13T02:17:16.217Z,3.93
2018-12-13T02:18:16.228Z,3.96
2018-12-13T02:19:16.267Z,3.92
2018-12-13T02:20:16.242Z,3.98
2018-12-13T02:21:16.238Z,3.98
2018-12-13T02:22:16.229Z,3.80
2018-12-13T02:23:16.281Z,3.77
2018-12-13T02:24:16.236Z,3.88
2018-12-13T02:25:16.247Z,3.70
2018-12-13T02:26:16.236Z,3.80
2018-12-13T02:27:16.238Z,3.75
2018-12-13T02:28:16.286Z,3.75
2018-12-13T02:29:16.238Z,3.67
2018-12-13T02:30:16.243Z,3.64
2018-12-13T02:31:16.244Z,3.68
2018-12-13T02:32:16.242Z,3.67
2018-12-13T02:33:16.244Z,3.71
2018-12-13T02:34:16.251Z,3.57
2018-12-13T02:35:16.253Z,3.67
2018-12-13T02:36:16.254Z,3.60
2018-12-13T02:37:16.250Z,3.60
2018-12-13T02:38:16.247Z,3.64
2018-12-13T02:39:16.250Z,3.60
2018-12-13T02:40:16.245Z,3.62
2018-12-13T02:41:16.253Z,3.57
2018-12-13T02:42:16.259Z,3.56
2018-12-13T02:43:16.269Z,3.60
2018-12-13T02:44:16.265Z,3.62
2018-12-13T02:45:16.253Z,3.63
2018-12-13T02:46:16.255Z,3.63
2018-12-13T02:47:16.264Z,3.50
2018-12-13T02:48:16.273Z,3.63
2018-12-13T02:49:16.276Z,3.56
2018-12-13T02:50:16.267Z,3.60
2018-12-13T02:51:16.270Z,3.52
2018-12-13T02:52:16.274Z,3.54
2018-12-13T02:53:16.289Z,3.59
2018-12-13T02:54:16.266Z,3.53
2018-12-13T02:55:16.278Z,3.52
2018-12-13T02:56:16.270Z,3.52
2018-12-13T02:57:16.273Z,3.53
2018-12-13T02:58:16.269Z,3.50
2018-12-13T02:59:16.270Z,3.53
2018-12-13T03:00:16.282Z,3.49
2018-12-13T03:01:16.283Z,3.50
2018-12-13T03:02:16.280Z,3.49
2018-12-13T03:03:16.274Z,3.33
2018-12-13T03:04:16.276Z,3.44
2018-12-13T03:05:16.284Z,3.39
2018-12-13T03:06:16.302Z,3.45
2018-12-13T03:07:16.296Z,3.39
2018-12-13T03:08:16.294Z,3.45
2018-12-13T03:09:16.301Z,3.37
2018-12-13T03:10:16.291Z,3.31
2018-12-13T03:11:16.282Z,3.35
2018-12-13T03:12:16.341Z,3.39
2018-12-13T03:13:16.284Z,3.33
2018-12-13T03:14:16.308Z,3.28
2018-12-13T03:15:16.299Z,3.33
2018-12-13T03:16:16.297Z,3.30
2018-12-13T03:17:16.303Z,3.28
2018-12-13T03:18:16.288Z,3.34
2018-12-13T03:19:16.299Z,3.37
2018-12-13T03:20:16.294Z,3.30
2018-12-13T03:21:16.301Z,3.23
2018-12-13T03:22:16.294Z,3.25
2018-12-13T03:23:16.305Z,3.22
2018-12-13T03:24:16.301Z,3.25
2018-12-13T03:26:16.297Z,3.30
2018-12-13T03:27:16.313Z,3.34
2018-12-13T03:28:16.302Z,3.37
2018-12-13T03:29:16.301Z,3.35
2018-12-13T03:30:16.314Z,3.42
2018-12-13T03:31:16.308Z,3.42
2018-12-13T03:32:16.423Z,3.34
2018-12-13T03:33:16.325Z,3.41
2018-12-13T03:34:16.325Z,3.35
2018-12-13T03:35:16.305Z,3.45
2018-12-13T03:36:16.313Z,3.50
2018-12-13T03:37:20.567Z,3.46
2018-12-13T03:38:16.320Z,3.50
2018-12-13T03:39:16.314Z,3.50
2018-12-13T03:40:16.336Z,3.53
2018-12-13T03:41:16.332Z,3.42
2018-12-13T03:42:16.445Z,3.44
2018-12-13T03:43:16.322Z,3.44
2018-12-13T03:44:16.317Z,3.42
2018-12-13T03:45:16.352Z,3.39
2018-12-13T03:46:16.322Z,3.35
2018-12-13T03:47:16.322Z,3.39
2018-12-13T03:48:16.319Z,3.30
2018-12-13T03:49:16.319Z,3.30
2018-12-13T03:50:16.326Z,3.22
2018-12-13T03:51:16.328Z,3.28
2018-12-13T03:52:16.337Z,3.22
2018-12-13T03:53:16.330Z,3.22
2018-12-13T03:54:16.330Z,3.26
2018-12-13T03:55:16.441Z,3.19
2018-12-13T03:56:16.340Z,3.19
2018-12-13T03:57:16.340Z,3.13
2018-12-13T03:58:16.341Z,3.12
2018-12-13T03:59:16.334Z,3.12
2018-12-13T04:00:16.334Z,3.04
2018-12-13T04:01:16.341Z,3.05
2018-12-13T04:02:16.334Z,3.04
2018-12-13T04:03:16.341Z,3.04
2018-12-13T04:04:16.337Z,3.02
2018-12-13T04:05:16.343Z,2.99
2018-12-13T04:06:16.344Z,2.97
2018-12-13T04:07:16.346Z,2.94
2018-12-13T04:08:16.372Z,2.95
2018-12-13T04:09:16.343Z,2.98
2018-12-13T04:10:16.364Z,2.98
2018-12-13T04:11:16.370Z,3.01
2018-12-13T04:12:16.345Z,2.98
2018-12-13T04:13:16.351Z,2.94
2018-12-13T04:14:16.346Z,2.92
2018-12-13T04:15:16.342Z,2.90
2018-12-13T04:16:16.350Z,2.90
2018-12-13T04:17:16.350Z,2.89
2018-12-13T04:18:16.492Z,2.92
2018-12-13T04:19:16.346Z,2.86
2018-12-13T04:20:16.351Z,2.92
2018-12-13T04:21:16.360Z,2.86
2018-12-13T04:22:16.361Z,2.97
2018-12-13T04:23:16.352Z,2.89
2018-12-13T04:24:16.357Z,2.86
2018-12-13T04:25:16.354Z,2.87
2018-12-13T04:26:16.357Z,2.81
2018-12-13T04:27:16.354Z,2.81
2018-12-13T04:28:16.364Z,2.84
2018-12-13T04:29:16.368Z,2.84
2018-12-13T04:30:16.357Z,2.81
2018-12-13T04:31:16.363Z,2.81
2018-12-13T04:32:16.364Z,2.80
2018-12-13T04:33:16.355Z,2.71
2018-12-13T04:34:16.353Z,2.80
2018-12-13T04:35:16.355Z,2.79
2018-12-13T04:36:16.411Z,2.71
2018-12-13T04:37:16.365Z,2.74
2018-12-13T04:38:16.359Z,2.71
2018-12-13T04:39:16.362Z,2.74
2018-12-13T04:40:16.365Z,2.71
2018-12-13T04:41:16.374Z,2.69
2018-12-13T04:42:16.363Z,2.74
2018-12-13T04:43:16.359Z,2.68
2018-12-13T04:44:16.378Z,2.66
2018-12-13T04:45:16.378Z,2.73
2018-12-13T04:46:16.362Z,2.63
2018-12-13T04:47:16.363Z,2.69
2018-12-13T04:48:16.372Z,2.68
2018-12-13T04:49:16.375Z,2.59
2018-12-13T04:50:16.364Z,2.61
2018-12-13T04:51:16.372Z,2.61
2018-12-13T04:52:16.368Z,2.66
2018-12-13T04:53:16.373Z,2.65
2018-12-13T04:54:16.365Z,2.63
2018-12-13T04:55:16.381Z,2.62
2018-12-13T04:56:16.376Z,2.62
2018-12-13T04:57:16.383Z,2.62
2018-12-13T04:58:16.388Z,2.61
2018-12-13T04:59:16.382Z,2.65
2018-12-13T05:00:16.399Z,2.59
2018-12-13T05:01:16.376Z,2.59
2018-12-13T05:02:16.369Z,2.56
2018-12-13T05:03:16.373Z,2.61
2018-12-13T05:04:16.397Z,2.56
2018-12-13T05:05:16.382Z,2.61
2018-12-13T05:06:16.381Z,2.51
2018-12-13T05:07:16.383Z,2.59
2018-12-13T05:08:16.373Z,2.59
2018-12-13T05:09:16.377Z,2.56
2018-12-13T05:10:16.392Z,2.59
2018-12-13T05:11:16.387Z,2.56
2018-12-13T05:12:16.388Z,2.51
2018-12-13T05:13:16.395Z,2.58
2018-12-13T05:14:16.398Z,2.51
2018-12-13T05:15:16.373Z,2.53
2018-12-13T05:16:16.388Z,2.53
2018-12-13T05:17:16.387Z,2.50
2018-12-13T05:18:16.377Z,2.53
2018-12-13T05:19:16.382Z,2.51
2018-12-13T05:20:16.392Z,2.51
2018-12-13T05:21:16.399Z,2.48
2018-12-13T05:22:16.377Z,2.47
2018-12-13T05:23:16.381Z,2.45
2018-12-13T05:24:16.387Z,2.50
2018-12-13T05:25:17.118Z,2.47
2018-12-13T05:26:16.401Z,2.48
2018-12-13T05:27:16.396Z,2.41
2018-12-13T05:28:16.397Z,2.36
2018-12-13T05:29:16.408Z,2.36
2018-12-13T05:30:16.390Z,2.41
2018-12-13T05:31:16.395Z,2.44
2018-12-13T05:32:16.389Z,2.41
2018-12-13T05:33:16.420Z,2.44
2018-12-13T05:34:16.400Z,2.43
2018-12-13T05:35:16.399Z,2.38
2018-12-13T05:36:16.389Z,2.38
2018-12-13T05:37:16.400Z,2.37
2018-12-13T05:38:16.389Z,2.38
2018-12-13T05:39:16.386Z,2.32
2018-12-13T05:40:16.397Z,2.40
2018-12-13T05:41:16.421Z,2.44
2018-12-13T05:43:16.410Z,2.36
2018-12-13T05:44:16.415Z,2.36
2018-12-13T05:45:16.401Z,2.30
2018-12-13T05:46:16.401Z,2.29
2018-12-13T05:47:16.474Z,2.25
2018-12-13T05:48:16.624Z,2.40
2018-12-13T05:51:16.401Z,2.27
2018-12-13T05:52:16.397Z,2.32
2018-12-13T05:53:16.399Z,2.25
2018-12-13T05:54:16.390Z,2.25
2018-12-13T05:57:16.403Z,2.30
2018-12-13T05:58:16.406Z,2.23
2018-12-13T05:59:16.404Z,2.26
2018-12-13T06:00:16.401Z,2.22
2018-12-13T06:01:16.406Z,2.26
2018-12-13T06:02:16.407Z,2.29
2018-12-13T06:03:16.408Z,2.27
2018-12-13T06:04:16.409Z,2.29
2018-12-13T06:05:16.412Z,2.25
2018-12-13T06:07:16.402Z,2.26
2018-12-13T06:08:16.401Z,2.25
2018-12-13T06:09:16.407Z,2.27
2018-12-13T06:10:16.402Z,2.30
2018-12-13T06:11:16.473Z,2.25
2018-12-13T06:13:16.417Z,2.27
2018-12-13T06:14:16.417Z,2.27
2018-12-13T06:15:16.423Z,2.19
2018-12-13T06:17:16.438Z,2.26
2018-12-13T06:18:16.418Z,2.23
2018-12-13T06:19:16.683Z,2.19
2018-12-13T06:21:16.503Z,2.22
2018-12-13T06:22:16.413Z,2.20
2018-12-13T06:24:16.407Z,2.12
2018-12-13T06:26:16.513Z,2.18
2018-12-13T06:27:16.663Z,2.20
2018-12-13T06:28:16.426Z,2.20
2018-12-13T06:29:16.422Z,2.19
2018-12-13T06:30:16.415Z,2.23
2018-12-13T06:31:16.773Z,2.26
2018-12-13T06:32:16.415Z,2.19
2018-12-13T06:33:16.618Z,2.19
2018-12-13T06:34:16.417Z,2.14
2018-12-13T06:35:16.465Z,2.15
2018-12-13T06:36:16.424Z,2.18
2018-12-13T06:37:16.725Z,2.14
2018-12-13T06:38:16.432Z,2.12
2018-12-13T06:39:16.640Z,2.14
2018-12-13T06:40:16.412Z,2.08
2018-12-13T06:41:16.748Z,2.08
2018-12-13T06:42:16.406Z,2.05
2018-12-13T06:43:16.870Z,2.09
2018-12-13T06:44:16.420Z,2.08
2018-12-13T06:45:16.776Z,2.05
2018-12-13T06:46:16.434Z,2.11
2018-12-13T06:47:16.862Z,2.12
2018-12-13T06:48:16.423Z,2.07
2018-12-13T06:49:16.459Z,2.09
2018-12-13T06:50:16.418Z,2.12
2018-12-13T06:51:16.844Z,2.14
2018-12-13T06:52:16.432Z,2.09
2018-12-13T06:53:16.627Z,2.18
2018-12-13T06:54:16.422Z,2.19
2018-12-13T06:55:16.430Z,2.19
2018-12-13T06:56:16.435Z,2.19
2018-12-13T06:57:16.425Z,2.12
2018-12-13T06:58:16.422Z,2.14
2018-12-13T06:59:16.425Z,2.14
2018-12-13T07:00:16.432Z,2.12
2018-12-13T07:01:16.435Z,2.15
2018-12-13T07:02:16.426Z,2.05
2018-12-13T07:03:16.419Z,2.19
2018-12-13T07:04:16.428Z,2.18
2018-12-13T07:05:16.425Z,2.14
2018-12-13T07:06:16.422Z,2.18
2018-12-13T07:07:16.435Z,2.20
2018-12-13T07:08:16.416Z,2.18
2018-12-13T07:09:16.440Z,2.15
2018-12-13T07:10:16.426Z,2.14
2018-12-13T07:11:16.421Z,2.11
2018-12-13T07:12:16.428Z,2.19
2018-12-13T07:13:16.423Z,2.18
2018-12-13T07:14:16.433Z,2.19
2018-12-13T07:15:16.436Z,2.26
2018-12-13T07:16:16.444Z,2.27
2018-12-13T07:17:16.428Z,2.27
2018-12-13T07:18:16.425Z,2.25
2018-12-13T07:19:16.432Z,2.22
2018-12-13T07:20:16.430Z,2.18
2018-12-13T07:21:16.429Z,2.12
2018-12-13T07:23:16.424Z,2.18
2018-12-13T07:25:16.436Z,2.19
2018-12-13T07:26:16.428Z,2.15
2018-12-13T07:27:16.460Z,2.15
2018-12-13T07:28:16.427Z,2.19
2018-12-13T07:29:16.431Z,2.23
2018-12-13T07:30:16.423Z,2.26
2018-12-13T07:31:16.427Z,2.22
2018-12-13T07:32:16.439Z,2.19
2018-12-13T07:33:16.435Z,2.27
2018-12-13T07:34:16.438Z,2.23
2018-12-13T07:35:16.430Z,2.22
2018-12-13T07:36:16.425Z,2.20
2018-12-13T07:37:16.486Z,2.30
2018-12-13T07:38:16.436Z,2.20
2018-12-13T07:39:16.431Z,2.32
2018-12-13T07:40:16.447Z,2.23
2018-12-13T07:41:16.444Z,2.29
2018-12-13T07:42:16.423Z,2.20
2018-12-13T07:43:16.427Z,2.40
2018-12-13T07:44:16.424Z,2.43
2018-12-13T07:45:16.428Z,2.29
2018-12-13T07:46:16.439Z,2.36
2018-12-13T07:47:16.441Z,2.30
2018-12-13T07:48:16.442Z,2.37
2018-12-13T07:49:16.437Z,2.40
2018-12-13T07:50:16.442Z,2.41
2018-12-13T07:51:16.437Z,2.37
2018-12-13T07:52:16.439Z,2.32
2018-12-13T07:53:16.458Z,2.44
2018-12-13T07:54:16.439Z,2.44
2018-12-13T07:55:16.445Z,2.50
2018-12-13T07:56:16.433Z,2.53
2018-12-13T07:57:16.440Z,2.58
2018-12-13T07:58:16.463Z,2.58
2018-12-13T07:59:16.455Z,2.58
2018-12-13T08:00:16.454Z,2.55
2018-12-13T08:01:16.435Z,2.59
2018-12-13T08:02:16.441Z,2.65
2018-12-13T08:03:16.448Z,2.61
2018-12-13T08:04:16.453Z,2.74
2018-12-13T08:05:16.445Z,2.74
2018-12-13T08:06:16.490Z,2.71
2018-12-13T08:07:16.458Z,2.73
2018-12-13T08:08:20.798Z,2.76
2018-12-13T08:09:16.464Z,2.69
2018-12-13T08:10:16.457Z,2.71
2018-12-13T08:11:16.446Z,2.81
2018-12-13T08:13:16.470Z,2.83
2018-12-13T08:14:16.449Z,2.95
2018-12-13T08:15:16.451Z,2.89
2018-12-13T08:16:16.452Z,2.99
2018-12-13T08:17:16.469Z,2.89
2018-12-13T08:18:16.467Z,2.98
2018-12-13T08:19:16.470Z,2.98
2018-12-13T08:20:16.465Z,3.07
2018-12-13T08:21:16.454Z,3.07
2018-12-13T08:22:16.455Z,3.07
2018-12-13T08:23:16.468Z,3.17
2018-12-13T08:24:16.473Z,3.04
2018-12-13T08:25:16.472Z,3.19
2018-12-13T08:26:16.468Z,3.23
2018-12-13T08:27:16.465Z,3.28
2018-12-13T08:28:16.474Z,3.26
2018-12-13T08:29:16.490Z,3.33
2018-12-13T08:31:16.472Z,3.45
2018-12-13T08:33:16.473Z,3.50
2018-12-13T08:34:16.478Z,3.53
2018-12-13T08:36:16.506Z,3.57
2018-12-13T08:37:16.475Z,3.50
2018-12-13T08:38:16.549Z,3.62
2018-12-13T08:39:16.487Z,3.62
2018-12-13T08:40:16.488Z,3.68
2018-12-13T08:41:16.508Z,3.68
2018-12-13T08:42:16.495Z,3.70
2018-12-13T08:43:16.492Z,3.75
2018-12-13T08:44:16.500Z,3.71
2018-12-13T08:45:16.504Z,3.81
2018-12-13T08:46:16.505Z,3.84
2018-12-13T08:47:16.506Z,3.81
2018-12-13T08:48:16.508Z,3.71
2018-12-13T08:50:16.507Z,3.71
2018-12-13T08:51:16.505Z,3.67
2018-12-13T08:52:16.522Z,3.64
2018-12-13T08:54:16.522Z,3.71
2018-12-13T08:57:16.528Z,3.80
2018-12-13T08:58:16.522Z,3.75
2018-12-13T08:59:16.524Z,3.78
2018-12-13T09:00:16.529Z,3.80
2018-12-13T09:01:16.532Z,3.78
2018-12-13T09:02:16.528Z,3.80
2018-12-13T09:03:16.530Z,3.78
2018-12-13T09:04:16.534Z,3.71
2018-12-13T09:05:16.541Z,3.67
2018-12-13T09:06:16.548Z,3.75
2018-12-13T09:07:16.547Z,3.82
2018-12-13T09:08:16.543Z,3.90
2018-12-13T09:09:16.572Z,3.89
2018-12-13T09:10:16.545Z,3.92
2018-12-13T09:11:16.548Z,4.02
2018-12-13T09:12:16.551Z,4.02
2018-12-13T09:13:16.560Z,4.04
2018-12-13T09:14:16.570Z,4.06
2018-12-13T09:15:16.562Z,4.10
2018-12-13T09:17:16.575Z,4.06
2018-12-13T09:19:16.585Z,4.28
2018-12-13T09:20:16.569Z,4.35
2018-12-13T09:21:16.571Z,4.39
2018-12-13T09:22:16.567Z,4.39
2018-12-13T09:23:16.573Z,4.43
2018-12-13T09:24:16.587Z,4.56
2018-12-13T09:25:16.584Z,4.51
2018-12-13T09:26:16.592Z,4.59
2018-12-13T09:27:16.782Z,4.62
2018-12-13T09:28:16.611Z,4.69
2018-12-13T09:29:16.606Z,4.65
2018-12-13T09:30:16.593Z,4.69
2018-12-13T09:31:16.602Z,4.87
2018-12-13T09:33:16.608Z,4.75
2018-12-13T09:34:16.609Z,4.72
2018-12-13T09:35:16.615Z,4.83
2018-12-13T09:36:16.689Z,4.93
2018-12-13T09:37:16.629Z,4.86
2018-12-13T09:38:16.634Z,4.88
2018-12-13T09:39:16.639Z,4.93
2018-12-13T09:40:16.642Z,4.99
2018-12-13T09:41:16.631Z,4.99
2018-12-13T09:42:16.659Z,5.08
2018-12-13T09:43:16.653Z,5.11
2018-12-13T09:44:16.645Z,5.19
2018-12-13T09:45:16.651Z,5.35
2018-12-13T09:46:16.657Z,5.38
2018-12-13T09:47:16.665Z,5.30
2018-12-13T09:48:16.651Z,5.33
2018-12-13T09:49:16.659Z,5.47
2018-12-13T09:50:16.725Z,5.47
2018-12-13T09:51:16.679Z,5.51
2018-12-13T09:52:16.676Z,5.51
2018-12-13T09:53:16.671Z,5.63
2018-12-13T09:54:16.680Z,5.60
2018-12-13T09:55:16.680Z,5.74
2018-12-13T09:56:16.691Z,5.77
2018-12-13T09:57:16.692Z,5.80
2018-12-13T09:58:16.707Z,5.96
2018-12-13T09:59:16.704Z,6.01
2018-12-13T10:01:16.708Z,6.17
2018-12-13T10:02:16.708Z,6.19
2018-12-13T10:03:16.719Z,6.20
2018-12-13T10:04:16.715Z,6.38
2018-12-13T10:05:16.719Z,6.24
2018-12-13T10:06:16.736Z,6.19
2018-12-13T10:07:16.751Z,6.35
2018-12-13T10:08:16.745Z,6.21
2018-12-13T10:09:16.752Z,6.21
2018-12-13T10:10:16.762Z,6.25
2018-12-13T10:11:16.769Z,6.16
2018-12-13T10:13:16.769Z,6.32
2018-12-13T10:15:16.786Z,6.36
2018-12-13T10:17:16.794Z,6.46
2018-12-13T10:18:16.790Z,6.57
2018-12-13T10:19:16.798Z,6.53
2018-12-13T10:20:16.838Z,6.69
2018-12-13T10:21:16.810Z,6.81
2018-12-13T10:22:16.814Z,6.81
2018-12-13T10:23:16.811Z,6.78
2018-12-13T10:24:16.821Z,6.75
2018-12-13T10:25:16.828Z,6.78
2018-12-13T10:26:16.828Z,6.83
2018-12-13T10:27:16.841Z,6.97
2018-12-13T10:28:16.852Z,6.90
2018-12-13T10:29:16.847Z,6.69
2018-12-13T10:30:16.859Z,6.64
2018-12-13T10:31:16.877Z,6.73
2018-12-13T10:32:16.868Z,6.75
2018-12-13T10:33:16.864Z,6.81
2018-12-13T10:34:16.863Z,6.73
2018-12-13T10:36:16.878Z,6.71
2018-12-13T10:37:16.878Z,6.83
2018-12-13T10:38:16.887Z,6.78
2018-12-13T10:39:16.896Z,6.83
2018-12-13T10:40:16.899Z,6.82
2018-12-13T10:41:16.904Z,6.82
2018-12-13T10:42:16.921Z,6.97
2018-12-13T10:44:16.924Z,7.12
2018-12-13T10:45:16.934Z,7.14
2018-12-13T10:46:16.937Z,7.05
2018-12-13T10:47:16.947Z,7.09
2018-12-13T10:49:16.943Z,7.09
2018-12-13T10:50:16.957Z,6.97
2018-12-13T10:51:16.957Z,7.12
2018-12-13T10:52:16.958Z,7.14
2018-12-13T10:53:16.968Z,7.15
2018-12-13T10:54:16.981Z,7.14
2018-12-13T10:55:16.972Z,7.07
2018-12-13T10:56:16.994Z,6.94
2018-12-13T10:57:16.997Z,6.83
2018-12-13T10:58:16.994Z,6.72
2018-12-13T10:59:16.997Z,6.69
2018-12-13T11:00:17.013Z,6.75
2018-12-13T11:01:17.017Z,6.79
2018-12-13T11:03:17.025Z,6.72
2018-12-13T11:04:17.031Z,6.93
2018-12-13T11:05:17.031Z,7.04
2018-12-13T11:07:17.041Z,7.15
2018-12-13T11:09:17.055Z,7.21
2018-12-13T11:10:17.058Z,7.09
2018-12-13T11:11:17.066Z,7.00
2018-12-13T11:12:17.072Z,6.94
2018-12-13T11:13:17.073Z,6.73
2018-12-13T11:14:17.074Z,6.73
2018-12-13T11:15:17.079Z,6.63
2018-12-13T11:16:17.087Z,6.51
2018-12-13T11:17:17.087Z,6.58
2018-12-13T11:19:17.108Z,6.35
2018-12-13T11:20:17.126Z,6.36
2018-12-13T11:21:17.372Z,6.32
2018-12-13T11:22:17.110Z,6.45
2018-12-13T11:23:17.107Z,6.35
2018-12-13T11:24:17.141Z,6.38
2018-12-13T11:25:17.121Z,6.38
2018-12-13T11:26:17.130Z,6.40
2018-12-13T11:27:17.138Z,6.39
2018-12-13T11:28:17.137Z,6.51
2018-12-13T11:29:17.133Z,6.53
2018-12-13T11:30:17.140Z,6.65
2018-12-13T11:31:17.144Z,6.51
2018-12-13T11:32:17.182Z,6.68
2018-12-13T11:33:17.165Z,6.76
2018-12-13T11:34:17.160Z,6.71
2018-12-13T11:35:17.158Z,6.64
2018-12-13T11:36:17.168Z,6.68
2018-12-13T11:37:17.165Z,6.63
2018-12-13T11:38:17.179Z,6.69
2018-12-13T11:39:17.177Z,6.71
2018-12-13T11:40:17.186Z,6.63
2018-12-13T11:41:17.194Z,6.57
2018-12-13T11:42:17.207Z,6.87
2018-12-13T11:43:17.201Z,6.97
2018-12-13T11:44:17.203Z,7.04
2018-12-13T11:45:17.209Z,7.23
2018-12-13T11:46:17.212Z,7.21
2018-12-13T11:47:17.217Z,7.37
2018-12-13T11:48:17.231Z,7.71
2018-12-13T11:49:17.227Z,7.94
2018-12-13T11:51:17.271Z,8.21
2018-12-13T11:52:17.239Z,8.39
2018-12-13T11:53:17.252Z,8.37
2018-12-13T11:54:17.266Z,8.39
2018-12-13T11:55:17.254Z,8.57
2018-12-13T11:56:17.254Z,8.57
2018-12-13T11:57:17.263Z,8.61
2018-12-13T11:58:17.273Z,8.58
2018-12-13T11:59:17.281Z,8.61
2018-12-13T12:00:17.281Z,8.57
2018-12-13T12:01:17.285Z,8.46
2018-12-13T12:02:23.730Z,8.46
2018-12-13T12:03:17.294Z,8.50
2018-12-13T12:04:17.315Z,8.73
2018-12-13T12:05:17.311Z,8.70
2018-12-13T12:06:17.323Z,8.57
2018-12-13T12:07:17.323Z,8.37
2018-12-13T12:08:17.328Z,8.20
2018-12-13T12:09:17.355Z,8.20
2018-12-13T12:10:17.342Z,8.10
2018-12-13T12:11:17.354Z,8.10
2018-12-13T12:12:17.372Z,7.94
2018-12-13T12:13:17.363Z,7.91
2018-12-13T12:14:17.365Z,8.02
2018-12-13T12:15:17.375Z,7.88
2018-12-13T12:16:17.374Z,7.94
2018-12-13T12:18:17.386Z,7.89
2018-12-13T12:19:17.394Z,8.06
2018-12-13T12:20:17.404Z,8.06
2018-12-13T12:21:17.405Z,8.02
2018-12-13T12:22:17.418Z,8.03
2018-12-13T12:24:17.440Z,8.00
2018-12-13T12:25:17.439Z,7.95
2018-12-13T12:26:17.466Z,7.99
2018-12-13T12:27:17.451Z,8.04
2018-12-13T12:28:17.464Z,8.20
2018-12-13T12:30:17.466Z,8.39
2018-12-13T12:31:17.457Z,8.57
2018-12-13T12:32:17.479Z,8.63
2018-12-13T12:33:17.476Z,8.76
2018-12-13T12:34:17.480Z,8.79
2018-12-13T12:35:17.489Z,8.73
2018-12-13T12:36:17.486Z,8.76
2018-12-13T12:38:17.515Z,8.80
2018-12-13T12:39:18.684Z,8.73
2018-12-13T12:40:17.524Z,8.80
2018-12-13T12:41:17.566Z,8.83
2018-12-13T12:42:17.530Z,8.73
2018-12-13T12:43:17.553Z,8.78
2018-12-13T12:45:17.547Z,8.45
2018-12-13T12:46:17.550Z,8.32
2018-12-13T12:47:17.559Z,8.21
2018-12-13T12:48:17.563Z,8.14
2018-12-13T12:49:17.572Z,8.02
2018-12-13T12:50:17.578Z,7.92
2018-12-13T12:51:17.581Z,7.92
2018-12-13T12:52:17.585Z,7.85
2018-12-13T12:53:17.587Z,7.79
2018-12-13T12:54:17.597Z,7.79
2018-12-13T12:55:17.597Z,7.81
2018-12-13T12:56:17.609Z,7.69
2018-12-13T12:58:17.618Z,7.48
2018-12-13T12:59:17.623Z,7.27
2018-12-13T13:00:17.645Z,7.09
2018-12-13T13:01:17.643Z,7.07
2018-12-13T13:02:17.649Z,7.11
2018-12-13T13:04:17.645Z,7.08
2018-12-13T13:05:17.665Z,7.08
2018-12-13T13:06:17.647Z,7.11
2018-12-13T13:07:17.671Z,7.11
2018-12-13T13:09:17.668Z,7.08
2018-12-13T13:11:17.698Z,6.91
2018-12-13T13:12:17.687Z,6.75
2018-12-13T13:14:17.696Z,6.65
2018-12-13T13:16:17.695Z,6.61
2018-12-13T13:17:17.731Z,6.72
2018-12-13T13:18:17.712Z,6.64
2018-12-13T13:19:17.722Z,6.69
2018-12-13T13:20:17.727Z,6.64
2018-12-13T13:22:17.727Z,6.73
2018-12-13T13:23:17.745Z,6.65
2018-12-13T13:24:17.736Z,6.73
2018-12-13T13:25:17.737Z,6.69
2018-12-13T13:26:17.731Z,6.72
2018-12-13T13:27:17.740Z,6.61
2018-12-13T13:28:17.748Z,6.55
2018-12-13T13:29:17.754Z,6.46
2018-12-13T13:30:18.199Z,6.46
2018-12-13T13:31:17.755Z,6.48
2018-12-13T13:32:17.833Z,6.39
2018-12-13T13:33:17.797Z,6.50
2018-12-13T13:34:17.770Z,6.46
2018-12-13T13:35:17.770Z,6.46
2018-12-13T13:36:17.789Z,6.43
2018-12-13T13:37:17.779Z,6.36
2018-12-13T13:38:17.783Z,6.36
2018-12-13T13:39:17.777Z,6.39
2018-12-13T13:40:17.786Z,6.39
2018-12-13T13:41:18.294Z,6.28
2018-12-13T13:43:17.799Z,6.42
2018-12-13T13:44:17.802Z,6.33
2018-12-13T13:45:17.804Z,6.36
2018-12-13T13:46:17.816Z,6.38
2018-12-13T13:47:17.814Z,6.21
2018-12-13T13:48:17.820Z,6.30
2018-12-13T13:49:17.836Z,6.30
2018-12-13T13:50:17.833Z,6.35
2018-12-13T13:51:17.832Z,6.24
2018-12-13T13:52:17.823Z,6.20
2018-12-13T13:53:17.834Z,6.17
2018-12-13T13:54:17.830Z,6.17
2018-12-13T13:55:17.841Z,6.24
2018-12-13T13:56:17.858Z,6.27
2018-12-13T13:57:17.854Z,6.21
2018-12-13T13:58:17.850Z,6.20
2018-12-13T13:59:17.899Z,6.20
2018-12-13T14:00:17.862Z,6.21
2018-12-13T14:01:17.859Z,6.32
2018-12-13T14:02:17.861Z,6.10
2018-12-13T14:03:17.870Z,6.13
2018-12-13T14:04:17.880Z,6.08
2018-12-13T14:05:17.874Z,6.05
2018-12-13T14:06:17.870Z,6.13
2018-12-13T14:07:18.004Z,6.02
2018-12-13T14:08:17.894Z,6.08
2018-12-13T14:10:17.886Z,6.13
2018-12-13T14:11:17.894Z,6.03
2018-12-13T14:13:17.905Z,6.06
2018-12-13T14:14:17.946Z,6.10